sensor_id;sensor_type;location;lat;lon;timestamp;P1;durP1;ratioP1;P2;durP2;ratioP2
56860;SDS011;42744;51.094;3.490;2023-11-21T00:01:54;19.60;;;11.90;;
56860;SDS011;42744;51.094;3.490;2023-11-21T00:04:21;22.90;;;13.23;;
56860;SDS011;42744;51.094;3.490;2023-11-21T00:06:47;22.07;;;12.97;;
56860;SDS011;42744;51.094;3.490;2023-11-21T00:09:13;21.20;;;12.97;;
56860;SDS011;42744;51.094;3.490;2023-11-21T00:11:44;23.97;;;11.63;;
56860;SDS011;42744;51.094;3.490;2023-11-21T00:14:13;22.97;;;13.47;;
56860;SDS011;42744;51.094;3.490;2023-11-21T00:16:40;21.63;;;12.63;;
56860;SDS011;42744;51.094;3.490;2023-11-21T00:19:07;28.00;;;12.20;;
56860;SDS011;42744;51.094;3.490;2023-11-21T00:21:33;24.90;;;12.73;;
56860;SDS011;42744;51.094;3.490;2023-11-21T00:23:59;22.53;;;12.27;;
56860;SDS011;42744;51.094;3.490;2023-11-21T00:26:25;25.67;;;12.80;;
56860;SDS011;42744;51.094;3.490;2023-11-21T00:28:52;23.03;;;12.73;;
56860;SDS011;42744;51.094;3.490;2023-11-21T00:31:18;24.63;;;11.60;;
56860;SDS011;42744;51.094;3.490;2023-11-21T00:33:45;21.53;;;12.13;;
56860;SDS011;42744;51.094;3.490;2023-11-21T00:36:11;25.63;;;12.17;;
56860;SDS011;42744;51.094;3.490;2023-11-21T00:38:37;18.27;;;11.20;;
56860;SDS011;42744;51.094;3.490;2023-11-21T00:41:06;24.93;;;12.77;;
56860;SDS011;42744;51.094;3.490;2023-11-21T00:43:32;20.97;;;11.90;;
56860;SDS011;42744;51.094;3.490;2023-11-21T00:46:03;25.17;;;11.47;;
56860;SDS011;42744;51.094;3.490;2023-11-21T00:48:30;17.53;;;11.13;;
56860;SDS011;42744;51.094;3.490;2023-11-21T00:50:56;18.97;;;11.63;;
56860;SDS011;42744;51.094;3.490;2023-11-21T00:53:22;22.30;;;12.13;;
56860;SDS011;42744;51.094;3.490;2023-11-21T00:55:48;23.23;;;11.03;;
56860;SDS011;42744;51.094;3.490;2023-11-21T00:58:14;20.93;;;11.13;;
56860;SDS011;42744;51.094;3.490;2023-11-21T01:00:39;20.20;;;10.50;;
56860;SDS011;42744;51.094;3.490;2023-11-21T01:03:06;22.63;;;11.60;;
56860;SDS011;42744;51.094;3.490;2023-11-21T01:05:34;18.13;;;10.93;;
56860;SDS011;42744;51.094;3.490;2023-11-21T01:08:00;24.97;;;12.00;;
56860;SDS011;42744;51.094;3.490;2023-11-21T01:10:26;21.60;;;11.20;;
56860;SDS011;42744;51.094;3.490;2023-11-21T01:12:53;24.43;;;12.13;;
56860;SDS011;42744;51.094;3.490;2023-11-21T01:15:19;22.10;;;11.50;;
56860;SDS011;42744;51.094;3.490;2023-11-21T01:17:45;28.07;;;11.63;;
56860;SDS011;42744;51.094;3.490;2023-11-21T01:20:12;24.30;;;10.90;;
56860;SDS011;42744;51.094;3.490;2023-11-21T01:22:40;19.13;;;10.73;;
56860;SDS011;42744;51.094;3.490;2023-11-21T01:25:07;19.33;;;9.97;;
56860;SDS011;42744;51.094;3.490;2023-11-21T01:27:33;20.80;;;10.80;;
56860;SDS011;42744;51.094;3.490;2023-11-21T01:30:01;17.87;;;11.33;;
56860;SDS011;42744;51.094;3.490;2023-11-21T01:32:27;21.70;;;11.10;;
56860;SDS011;42744;51.094;3.490;2023-11-21T01:34:54;23.43;;;11.30;;
56860;SDS011;42744;51.094;3.490;2023-11-21T01:37:20;19.80;;;10.97;;
56860;SDS011;42744;51.094;3.490;2023-11-21T01:39:47;19.43;;;10.17;;
56860;SDS011;42744;51.094;3.490;2023-11-21T01:42:14;20.43;;;11.07;;
56860;SDS011;42744;51.094;3.490;2023-11-21T01:44:40;20.60;;;11.00;;
56860;SDS011;42744;51.094;3.490;2023-11-21T01:47:07;17.83;;;10.07;;
56860;SDS011;42744;51.094;3.490;2023-11-21T01:49:34;16.83;;;10.33;;
56860;SDS011;42744;51.094;3.490;2023-11-21T01:52:01;18.30;;;9.97;;
56860;SDS011;42744;51.094;3.490;2023-11-21T01:54:30;16.77;;;9.73;;
56860;SDS011;42744;51.094;3.490;2023-11-21T01:56:57;17.23;;;9.27;;
56860;SDS011;42744;51.094;3.490;2023-11-21T01:59:29;21.37;;;10.80;;
56860;SDS011;42744;51.094;3.490;2023-11-21T02:02:00;17.37;;;9.83;;
56860;SDS011;42744;51.094;3.490;2023-11-21T02:04:26;20.20;;;9.87;;
56860;SDS011;42744;51.094;3.490;2023-11-21T02:06:52;17.43;;;9.67;;
56860;SDS011;42744;51.094;3.490;2023-11-21T02:09:23;16.90;;;9.67;;
56860;SDS011;42744;51.094;3.490;2023-11-21T02:11:51;17.23;;;9.97;;
56860;SDS011;42744;51.094;3.490;2023-11-21T02:14:17;17.67;;;10.37;;
56860;SDS011;42744;51.094;3.490;2023-11-21T02:16:45;20.87;;;9.40;;
56860;SDS011;42744;51.094;3.490;2023-11-21T02:19:17;21.03;;;10.27;;
56860;SDS011;42744;51.094;3.490;2023-11-21T02:21:53;23.30;;;10.13;;
56860;SDS011;42744;51.094;3.490;2023-11-21T02:24:22;21.60;;;9.77;;
56860;SDS011;42744;51.094;3.490;2023-11-21T02:26:49;23.57;;;10.23;;
56860;SDS011;42744;51.094;3.490;2023-11-21T02:29:20;17.03;;;9.43;;
56860;SDS011;42744;51.094;3.490;2023-11-21T02:31:53;21.17;;;9.17;;
56860;SDS011;42744;51.094;3.490;2023-11-21T02:34:21;16.60;;;9.77;;
56860;SDS011;42744;51.094;3.490;2023-11-21T02:36:48;16.93;;;9.73;;
56860;SDS011;42744;51.094;3.490;2023-11-21T02:39:17;20.00;;;9.13;;
56860;SDS011;42744;51.094;3.490;2023-11-21T02:41:47;19.90;;;9.80;;
56860;SDS011;42744;51.094;3.490;2023-11-21T02:44:13;20.27;;;10.10;;
56860;SDS011;42744;51.094;3.490;2023-11-21T02:46:39;25.10;;;9.63;;
56860;SDS011;42744;51.094;3.490;2023-11-21T02:49:06;15.90;;;8.47;;
56860;SDS011;42744;51.094;3.490;2023-11-21T02:51:32;22.30;;;9.57;;
56860;SDS011;42744;51.094;3.490;2023-11-21T02:53:59;22.77;;;10.10;;
56860;SDS011;42744;51.094;3.490;2023-11-21T02:56:28;16.33;;;8.83;;
56860;SDS011;42744;51.094;3.490;2023-11-21T02:58:59;22.60;;;10.33;;
56860;SDS011;42744;51.094;3.490;2023-11-21T03:01:26;19.33;;;9.07;;
56860;SDS011;42744;51.094;3.490;2023-11-21T03:03:53;20.00;;;10.20;;
56860;SDS011;42744;51.094;3.490;2023-11-21T03:06:20;17.60;;;9.83;;
56860;SDS011;42744;51.094;3.490;2023-11-21T03:08:46;21.23;;;9.00;;
56860;SDS011;42744;51.094;3.490;2023-11-21T03:11:13;21.70;;;11.03;;
56860;SDS011;42744;51.094;3.490;2023-11-21T03:13:39;24.70;;;9.90;;
56860;SDS011;42744;51.094;3.490;2023-11-21T03:16:09;19.80;;;9.33;;
56860;SDS011;42744;51.094;3.490;2023-11-21T03:18:36;16.27;;;9.83;;
56860;SDS011;42744;51.094;3.490;2023-11-21T03:21:03;19.00;;;9.57;;
56860;SDS011;42744;51.094;3.490;2023-11-21T03:23:30;24.70;;;10.77;;
56860;SDS011;42744;51.094;3.490;2023-11-21T03:25:57;18.73;;;9.87;;
56860;SDS011;42744;51.094;3.490;2023-11-21T03:28:23;16.40;;;9.73;;
56860;SDS011;42744;51.094;3.490;2023-11-21T03:30:49;20.03;;;10.57;;
56860;SDS011;42744;51.094;3.490;2023-11-21T03:33:15;23.97;;;10.17;;
56860;SDS011;42744;51.094;3.490;2023-11-21T03:35:41;21.47;;;9.20;;
56860;SDS011;42744;51.094;3.490;2023-11-21T03:38:08;27.07;;;10.20;;
56860;SDS011;42744;51.094;3.490;2023-11-21T03:40:36;21.80;;;10.33;;
56860;SDS011;42744;51.094;3.490;2023-11-21T03:43:02;20.37;;;10.13;;
56860;SDS011;42744;51.094;3.490;2023-11-21T03:45:28;21.33;;;10.00;;
56860;SDS011;42744;51.094;3.490;2023-11-21T03:47:54;25.07;;;10.00;;
56860;SDS011;42744;51.094;3.490;2023-11-21T03:50:21;22.20;;;9.70;;
56860;SDS011;42744;51.094;3.490;2023-11-21T03:52:46;20.60;;;9.70;;
56860;SDS011;42744;51.094;3.490;2023-11-21T03:55:13;22.80;;;10.30;;
56860;SDS011;42744;51.094;3.490;2023-11-21T03:57:41;22.30;;;10.53;;
56860;SDS011;42744;51.094;3.490;2023-11-21T04:00:07;44.17;;;11.30;;
56860;SDS011;42744;51.094;3.490;2023-11-21T04:02:37;27.60;;;9.73;;
56860;SDS011;42744;51.094;3.490;2023-11-21T04:05:03;17.00;;;9.80;;
56860;SDS011;42744;51.094;3.490;2023-11-21T04:07:30;20.93;;;9.57;;
56860;SDS011;42744;51.094;3.490;2023-11-21T04:09:56;22.80;;;10.03;;
56860;SDS011;42744;51.094;3.490;2023-11-21T04:12:22;22.50;;;10.27;;
56860;SDS011;42744;51.094;3.490;2023-11-21T04:14:48;24.90;;;10.10;;
56860;SDS011;42744;51.094;3.490;2023-11-21T04:17:14;24.83;;;10.33;;
56860;SDS011;42744;51.094;3.490;2023-11-21T04:19:43;18.70;;;9.90;;
56860;SDS011;42744;51.094;3.490;2023-11-21T04:22:09;24.33;;;10.20;;
56860;SDS011;42744;51.094;3.490;2023-11-21T04:24:35;26.73;;;10.33;;
56860;SDS011;42744;51.094;3.490;2023-11-21T04:27:01;28.17;;;11.00;;
56860;SDS011;42744;51.094;3.490;2023-11-21T04:29:28;32.33;;;11.67;;
56860;SDS011;42744;51.094;3.490;2023-11-21T04:31:54;49.30;;;12.50;;
56860;SDS011;42744;51.094;3.490;2023-11-21T04:34:20;30.13;;;10.90;;
56860;SDS011;42744;51.094;3.490;2023-11-21T04:36:46;52.07;;;11.77;;
56860;SDS011;42744;51.094;3.490;2023-11-21T04:39:12;19.87;;;10.87;;
56860;SDS011;42744;51.094;3.490;2023-11-21T04:41:38;19.37;;;10.00;;
56860;SDS011;42744;51.094;3.490;2023-11-21T04:44:07;25.73;;;10.73;;
56860;SDS011;42744;51.094;3.490;2023-11-21T04:46:34;20.37;;;11.03;;
56860;SDS011;42744;51.094;3.490;2023-11-21T04:49:03;27.17;;;10.70;;
56860;SDS011;42744;51.094;3.490;2023-11-21T04:51:29;28.80;;;11.27;;
56860;SDS011;42744;51.094;3.490;2023-11-21T04:53:54;40.93;;;11.37;;
56860;SDS011;42744;51.094;3.490;2023-11-21T04:56:21;20.50;;;9.70;;
56860;SDS011;42744;51.094;3.490;2023-11-21T04:58:47;32.20;;;12.10;;
56860;SDS011;42744;51.094;3.490;2023-11-21T05:01:12;31.37;;;11.13;;
56860;SDS011;42744;51.094;3.490;2023-11-21T05:03:39;45.43;;;11.97;;
56860;SDS011;42744;51.094;3.490;2023-11-21T05:06:05;18.67;;;10.43;;
56860;SDS011;42744;51.094;3.490;2023-11-21T05:08:31;34.13;;;10.97;;
56860;SDS011;42744;51.094;3.490;2023-11-21T05:10:57;23.13;;;10.30;;
56860;SDS011;42744;51.094;3.490;2023-11-21T05:13:23;24.97;;;10.97;;
56860;SDS011;42744;51.094;3.490;2023-11-21T05:15:54;106.33;;;13.23;;
56860;SDS011;42744;51.094;3.490;2023-11-21T05:18:22;27.03;;;9.70;;
56860;SDS011;42744;51.094;3.490;2023-11-21T05:20:48;19.57;;;10.53;;
56860;SDS011;42744;51.094;3.490;2023-11-21T05:23:13;20.80;;;10.07;;
56860;SDS011;42744;51.094;3.490;2023-11-21T05:25:40;17.27;;;9.90;;
56860;SDS011;42744;51.094;3.490;2023-11-21T05:28:06;17.20;;;9.67;;
56860;SDS011;42744;51.094;3.490;2023-11-21T05:30:32;21.50;;;10.53;;
56860;SDS011;42744;51.094;3.490;2023-11-21T05:32:58;21.47;;;10.53;;
56860;SDS011;42744;51.094;3.490;2023-11-21T05:35:24;19.53;;;10.17;;
56860;SDS011;42744;51.094;3.490;2023-11-21T05:37:51;18.03;;;10.37;;
56860;SDS011;42744;51.094;3.490;2023-11-21T05:40:17;34.60;;;11.97;;
56860;SDS011;42744;51.094;3.490;2023-11-21T05:42:43;25.43;;;11.93;;
56860;SDS011;42744;51.094;3.490;2023-11-21T05:45:09;28.20;;;11.57;;
56860;SDS011;42744;51.094;3.490;2023-11-21T05:47:40;21.97;;;11.47;;
56860;SDS011;42744;51.094;3.490;2023-11-21T05:50:08;23.47;;;10.97;;
56860;SDS011;42744;51.094;3.490;2023-11-21T05:52:38;31.90;;;11.70;;
56860;SDS011;42744;51.094;3.490;2023-11-21T05:55:05;30.27;;;12.57;;
56860;SDS011;42744;51.094;3.490;2023-11-21T05:57:34;31.57;;;12.80;;
56860;SDS011;42744;51.094;3.490;2023-11-21T06:00:08;26.93;;;13.03;;
56860;SDS011;42744;51.094;3.490;2023-11-21T06:02:56;67.13;;;14.07;;
56860;SDS011;42744;51.094;3.490;2023-11-21T06:05:23;39.03;;;13.23;;
56860;SDS011;42744;51.094;3.490;2023-11-21T06:07:50;47.03;;;13.47;;
56860;SDS011;42744;51.094;3.490;2023-11-21T06:10:20;48.33;;;12.93;;
56860;SDS011;42744;51.094;3.490;2023-11-21T06:12:47;48.57;;;15.03;;
56860;SDS011;42744;51.094;3.490;2023-11-21T06:15:13;69.43;;;14.93;;
56860;SDS011;42744;51.094;3.490;2023-11-21T06:17:40;54.60;;;13.00;;
56860;SDS011;42744;51.094;3.490;2023-11-21T06:20:08;52.03;;;12.80;;
56860;SDS011;42744;51.094;3.490;2023-11-21T06:22:36;70.70;;;14.70;;
56860;SDS011;42744;51.094;3.490;2023-11-21T06:25:09;39.37;;;12.83;;
56860;SDS011;42744;51.094;3.490;2023-11-21T06:27:39;28.57;;;11.17;;
56860;SDS011;42744;51.094;3.490;2023-11-21T06:30:07;39.30;;;13.17;;
56860;SDS011;42744;51.094;3.490;2023-11-21T06:32:35;48.87;;;13.13;;
56860;SDS011;42744;51.094;3.490;2023-11-21T06:35:05;43.57;;;14.57;;
56860;SDS011;42744;51.094;3.490;2023-11-21T06:37:32;53.97;;;15.43;;
56860;SDS011;42744;51.094;3.490;2023-11-21T06:39:58;59.13;;;14.07;;
56860;SDS011;42744;51.094;3.490;2023-11-21T06:42:25;34.97;;;13.07;;
56860;SDS011;42744;51.094;3.490;2023-11-21T06:44:52;35.87;;;12.53;;
56860;SDS011;42744;51.094;3.490;2023-11-21T06:47:19;32.80;;;12.43;;
56860;SDS011;42744;51.094;3.490;2023-11-21T06:49:45;25.73;;;11.43;;
56860;SDS011;42744;51.094;3.490;2023-11-21T06:52:15;37.83;;;12.50;;
56860;SDS011;42744;51.094;3.490;2023-11-21T06:54:41;22.27;;;11.60;;
56860;SDS011;42744;51.094;3.490;2023-11-21T06:57:07;47.23;;;13.23;;
56860;SDS011;42744;51.094;3.490;2023-11-21T06:59:33;30.93;;;12.13;;
56860;SDS011;42744;51.094;3.490;2023-11-21T07:01:59;38.03;;;11.90;;
56860;SDS011;42744;51.094;3.490;2023-11-21T07:04:25;34.73;;;11.47;;
56860;SDS011;42744;51.094;3.490;2023-11-21T07:06:51;15.40;;;8.77;;
56860;SDS011;42744;51.094;3.490;2023-11-21T07:09:20;18.93;;;10.20;;
56860;SDS011;42744;51.094;3.490;2023-11-21T07:11:50;20.03;;;9.97;;
56860;SDS011;42744;51.094;3.490;2023-11-21T07:14:17;22.90;;;11.13;;
56860;SDS011;42744;51.094;3.490;2023-11-21T07:16:45;33.13;;;11.97;;
56860;SDS011;42744;51.094;3.490;2023-11-21T07:19:11;27.87;;;10.93;;
56860;SDS011;42744;51.094;3.490;2023-11-21T07:21:38;22.37;;;10.47;;
56860;SDS011;42744;51.094;3.490;2023-11-21T07:24:05;28.67;;;10.73;;
56860;SDS011;42744;51.094;3.490;2023-11-21T07:26:33;42.20;;;11.27;;
56860;SDS011;42744;51.094;3.490;2023-11-21T07:29:00;20.67;;;10.10;;
56860;SDS011;42744;51.094;3.490;2023-11-21T07:31:28;32.50;;;10.30;;
56860;SDS011;42744;51.094;3.490;2023-11-21T07:33:54;27.93;;;10.07;;
56860;SDS011;42744;51.094;3.490;2023-11-21T07:36:23;27.80;;;10.13;;
56860;SDS011;42744;51.094;3.490;2023-11-21T07:38:49;25.30;;;10.93;;
56860;SDS011;42744;51.094;3.490;2023-11-21T07:41:15;25.30;;;10.80;;
56860;SDS011;42744;51.094;3.490;2023-11-21T07:43:43;25.60;;;11.33;;
56860;SDS011;42744;51.094;3.490;2023-11-21T07:46:10;43.27;;;12.53;;
56860;SDS011;42744;51.094;3.490;2023-11-21T07:48:41;41.33;;;12.40;;
56860;SDS011;42744;51.094;3.490;2023-11-21T07:51:08;56.03;;;12.90;;
56860;SDS011;42744;51.094;3.490;2023-11-21T07:53:35;40.67;;;12.20;;
56860;SDS011;42744;51.094;3.490;2023-11-21T07:56:08;40.87;;;11.43;;
56860;SDS011;42744;51.094;3.490;2023-11-21T07:58:35;37.63;;;12.10;;
56860;SDS011;42744;51.094;3.490;2023-11-21T08:01:02;20.23;;;8.97;;
56860;SDS011;42744;51.094;3.490;2023-11-21T08:03:29;42.90;;;11.53;;
56860;SDS011;42744;51.094;3.490;2023-11-21T08:05:58;25.67;;;10.07;;
56860;SDS011;42744;51.094;3.490;2023-11-21T08:08:25;36.50;;;9.60;;
56860;SDS011;42744;51.094;3.490;2023-11-21T08:10:52;21.83;;;8.87;;
56860;SDS011;42744;51.094;3.490;2023-11-21T08:13:28;46.83;;;9.63;;
56860;SDS011;42744;51.094;3.490;2023-11-21T08:15:56;19.90;;;8.07;;
56860;SDS011;42744;51.094;3.490;2023-11-21T08:18:27;24.10;;;9.43;;
56860;SDS011;42744;51.094;3.490;2023-11-21T08:20:54;24.90;;;9.17;;
56860;SDS011;42744;51.094;3.490;2023-11-21T08:23:20;16.73;;;7.93;;
56860;SDS011;42744;51.094;3.490;2023-11-21T08:25:50;15.77;;;7.80;;
56860;SDS011;42744;51.094;3.490;2023-11-21T08:28:17;15.90;;;8.10;;
56860;SDS011;42744;51.094;3.490;2023-11-21T08:30:43;12.00;;;7.40;;
56860;SDS011;42744;51.094;3.490;2023-11-21T08:33:09;22.43;;;7.57;;
56860;SDS011;42744;51.094;3.490;2023-11-21T08:35:38;180.70;;;12.97;;
56860;SDS011;42744;51.094;3.490;2023-11-21T08:38:04;216.80;;;15.60;;
56860;SDS011;42744;51.094;3.490;2023-11-21T08:40:30;164.90;;;16.83;;
56860;SDS011;42744;51.094;3.490;2023-11-21T08:42:56;10.97;;;6.10;;
56860;SDS011;42744;51.094;3.490;2023-11-21T08:45:24;410.23;;;31.37;;
56860;SDS011;42744;51.094;3.490;2023-11-21T08:47:51;209.50;;;18.90;;
56860;SDS011;42744;51.094;3.490;2023-11-21T08:50:17;12.13;;;6.40;;
56860;SDS011;42744;51.094;3.490;2023-11-21T08:52:44;14.67;;;6.47;;
56860;SDS011;42744;51.094;3.490;2023-11-21T08:55:14;10.50;;;6.60;;
56860;SDS011;42744;51.094;3.490;2023-11-21T08:57:40;12.77;;;5.83;;
56860;SDS011;42744;51.094;3.490;2023-11-21T09:00:09;10.10;;;5.50;;
56860;SDS011;42744;51.094;3.490;2023-11-21T09:02:39;76.83;;;8.90;;
56860;SDS011;42744;51.094;3.490;2023-11-21T09:05:07;12.53;;;5.40;;
56860;SDS011;42744;51.094;3.490;2023-11-21T09:07:35;8.00;;;4.73;;
56860;SDS011;42744;51.094;3.490;2023-11-21T09:10:02;12.90;;;5.07;;
56860;SDS011;42744;51.094;3.490;2023-11-21T09:12:28;6.53;;;3.67;;
56860;SDS011;42744;51.094;3.490;2023-11-21T09:14:55;10.90;;;4.30;;
56860;SDS011;42744;51.094;3.490;2023-11-21T09:17:21;10.97;;;4.20;;
56860;SDS011;42744;51.094;3.490;2023-11-21T09:19:47;8.63;;;3.80;;
56860;SDS011;42744;51.094;3.490;2023-11-21T09:22:17;9.47;;;3.10;;
56860;SDS011;42744;51.094;3.490;2023-11-21T09:24:43;9.10;;;3.53;;
56860;SDS011;42744;51.094;3.490;2023-11-21T09:27:09;5.07;;;2.53;;
56860;SDS011;42744;51.094;3.490;2023-11-21T09:29:35;5.47;;;2.10;;
56860;SDS011;42744;51.094;3.490;2023-11-21T09:32:05;5.13;;;1.80;;
56860;SDS011;42744;51.094;3.490;2023-11-21T09:34:33;11.10;;;2.13;;
56860;SDS011;42744;51.094;3.490;2023-11-21T09:37:07;3.87;;;1.53;;
56860;SDS011;42744;51.094;3.490;2023-11-21T09:39:33;5.97;;;1.60;;
56860;SDS011;42744;51.094;3.490;2023-11-21T09:44:50;5.43;;;1.80;;
56860;SDS011;42744;51.094;3.490;2023-11-21T09:47:29;4.40;;;2.03;;
56860;SDS011;42744;51.094;3.490;2023-11-21T09:49:56;13.20;;;2.77;;
56860;SDS011;42744;51.094;3.490;2023-11-21T09:52:26;7.43;;;2.03;;
56860;SDS011;42744;51.094;3.490;2023-11-21T09:54:53;9.23;;;2.37;;
56860;SDS011;42744;51.094;3.490;2023-11-21T09:57:23;9.40;;;2.93;;
56860;SDS011;42744;51.094;3.490;2023-11-21T09:59:54;7.13;;;3.20;;
56860;SDS011;42744;51.094;3.490;2023-11-21T10:02:30;12.73;;;3.30;;
56860;SDS011;42744;51.094;3.490;2023-11-21T10:05:02;7.37;;;4.50;;
56860;SDS011;42744;51.094;3.490;2023-11-21T10:07:28;10.47;;;4.70;;
56860;SDS011;42744;51.094;3.490;2023-11-21T10:09:57;7.67;;;3.37;;
56860;SDS011;42744;51.094;3.490;2023-11-21T10:12:25;5.17;;;3.90;;
56860;SDS011;42744;51.094;3.490;2023-11-21T10:14:52;10.63;;;3.80;;
56860;SDS011;42744;51.094;3.490;2023-11-21T10:17:23;6.97;;;3.70;;
56860;SDS011;42744;51.094;3.490;2023-11-21T10:19:51;8.50;;;4.60;;
56860;SDS011;42744;51.094;3.490;2023-11-21T10:22:19;10.40;;;4.77;;
56860;SDS011;42744;51.094;3.490;2023-11-21T10:24:46;8.97;;;4.70;;
56860;SDS011;42744;51.094;3.490;2023-11-21T10:27:12;11.47;;;4.00;;
56860;SDS011;42744;51.094;3.490;2023-11-21T10:29:41;7.33;;;3.43;;
56860;SDS011;42744;51.094;3.490;2023-11-21T10:32:07;8.30;;;4.07;;
56860;SDS011;42744;51.094;3.490;2023-11-21T10:34:33;6.50;;;3.43;;
56860;SDS011;42744;51.094;3.490;2023-11-21T10:37:02;5.77;;;3.73;;
56860;SDS011;42744;51.094;3.490;2023-11-21T10:39:38;10.07;;;3.20;;
56860;SDS011;42744;51.094;3.490;2023-11-21T10:42:04;8.00;;;2.87;;
56860;SDS011;42744;51.094;3.490;2023-11-21T10:44:35;5.87;;;3.30;;
56860;SDS011;42744;51.094;3.490;2023-11-21T10:47:01;4.67;;;3.23;;
56860;SDS011;42744;51.094;3.490;2023-11-21T10:49:27;6.37;;;3.03;;
56860;SDS011;42744;51.094;3.490;2023-11-21T10:51:53;10.07;;;2.50;;
56860;SDS011;42744;51.094;3.490;2023-11-21T10:54:20;8.60;;;2.50;;
56860;SDS011;42744;51.094;3.490;2023-11-21T10:56:50;9.83;;;3.13;;
56860;SDS011;42744;51.094;3.490;2023-11-21T10:59:22;5.67;;;2.50;;
56860;SDS011;42744;51.094;3.490;2023-11-21T11:01:50;5.63;;;2.20;;
56860;SDS011;42744;51.094;3.490;2023-11-21T11:04:18;8.83;;;3.00;;
56860;SDS011;42744;51.094;3.490;2023-11-21T11:06:54;10.33;;;2.70;;
56860;SDS011;42744;51.094;3.490;2023-11-21T11:09:22;12.43;;;2.93;;
56860;SDS011;42744;51.094;3.490;2023-11-21T11:11:50;4.97;;;2.53;;
56860;SDS011;42744;51.094;3.490;2023-11-21T11:14:18;8.80;;;2.60;;
56860;SDS011;42744;51.094;3.490;2023-11-21T11:16:45;9.80;;;2.50;;
56860;SDS011;42744;51.094;3.490;2023-11-21T11:19:11;6.67;;;2.47;;
56860;SDS011;42744;51.094;3.490;2023-11-21T11:27:26;7.70;;;2.50;;
56860;SDS011;42744;51.094;3.490;2023-11-21T11:35:23;10.47;;;2.10;;
56860;SDS011;42744;51.094;3.490;2023-11-21T11:38:03;7.67;;;1.70;;
56860;SDS011;42744;51.094;3.490;2023-11-21T11:40:39;7.47;;;1.67;;
56860;SDS011;42744;51.094;3.490;2023-11-21T11:43:07;10.87;;;2.03;;
56860;SDS011;42744;51.094;3.490;2023-11-21T11:45:33;8.33;;;1.90;;
56860;SDS011;42744;51.094;3.490;2023-11-21T11:48:06;7.73;;;2.10;;
56860;SDS011;42744;51.094;3.490;2023-11-21T11:50:33;7.13;;;2.33;;
56860;SDS011;42744;51.094;3.490;2023-11-21T11:53:12;4.43;;;1.73;;
56860;SDS011;42744;51.094;3.490;2023-11-21T11:55:40;6.33;;;1.70;;
56860;SDS011;42744;51.094;3.490;2023-11-21T11:58:06;6.63;;;1.53;;
56860;SDS011;42744;51.094;3.490;2023-11-21T12:00:34;5.60;;;1.80;;
56860;SDS011;42744;51.094;3.490;2023-11-21T12:03:07;4.03;;;1.90;;
56860;SDS011;42744;51.094;3.490;2023-11-21T12:05:34;7.20;;;1.90;;
56860;SDS011;42744;51.094;3.490;2023-11-21T12:08:04;4.93;;;1.83;;
56860;SDS011;42744;51.094;3.490;2023-11-21T12:10:33;4.53;;;1.60;;
56860;SDS011;42744;51.094;3.490;2023-11-21T12:13:05;5.53;;;1.70;;
56860;SDS011;42744;51.094;3.490;2023-11-21T12:15:33;5.13;;;1.47;;
56860;SDS011;42744;51.094;3.490;2023-11-21T12:18:00;4.80;;;1.67;;
56860;SDS011;42744;51.094;3.490;2023-11-21T12:20:27;3.40;;;1.70;;
56860;SDS011;42744;51.094;3.490;2023-11-21T12:22:54;4.80;;;1.60;;
56860;SDS011;42744;51.094;3.490;2023-11-21T12:25:22;4.93;;;1.60;;
56860;SDS011;42744;51.094;3.490;2023-11-21T12:27:50;4.23;;;1.70;;
56860;SDS011;42744;51.094;3.490;2023-11-21T12:30:18;2.57;;;1.13;;
56860;SDS011;42744;51.094;3.490;2023-11-21T12:32:51;5.07;;;1.40;;
56860;SDS011;42744;51.094;3.490;2023-11-21T12:35:22;8.17;;;1.80;;
56860;SDS011;42744;51.094;3.490;2023-11-21T12:37:52;6.57;;;1.80;;
56860;SDS011;42744;51.094;3.490;2023-11-21T12:40:20;3.90;;;1.37;;
56860;SDS011;42744;51.094;3.490;2023-11-21T12:42:48;4.37;;;1.10;;
56860;SDS011;42744;51.094;3.490;2023-11-21T12:45:22;4.93;;;1.90;;
56860;SDS011;42744;51.094;3.490;2023-11-21T12:47:51;5.43;;;1.90;;
56860;SDS011;42744;51.094;3.490;2023-11-21T12:50:24;3.30;;;1.43;;
56860;SDS011;42744;51.094;3.490;2023-11-21T12:52:57;5.80;;;1.20;;
56860;SDS011;42744;51.094;3.490;2023-11-21T12:55:24;4.47;;;2.00;;
56860;SDS011;42744;51.094;3.490;2023-11-21T12:57:52;6.57;;;1.70;;
56860;SDS011;42744;51.094;3.490;2023-11-21T13:00:20;3.03;;;1.13;;
56860;SDS011;42744;51.094;3.490;2023-11-21T13:02:55;2.53;;;1.30;;
56860;SDS011;42744;51.094;3.490;2023-11-21T13:05:30;5.80;;;3.37;;
56860;SDS011;42744;51.094;3.490;2023-11-21T13:08:01;2.20;;;1.47;;
56860;SDS011;42744;51.094;3.490;2023-11-21T13:10:29;6.97;;;3.13;;
56860;SDS011;42744;51.094;3.490;2023-11-21T13:12:57;7.43;;;3.50;;
56860;SDS011;42744;51.094;3.490;2023-11-21T13:15:24;5.03;;;2.73;;
56860;SDS011;42744;51.094;3.490;2023-11-21T13:17:50;1.83;;;0.87;;
56860;SDS011;42744;51.094;3.490;2023-11-21T13:20:19;2.57;;;1.67;;
56860;SDS011;42744;51.094;3.490;2023-11-21T13:22:49;3.33;;;1.23;;
56860;SDS011;42744;51.094;3.490;2023-11-21T13:25:20;4.50;;;1.20;;
56860;SDS011;42744;51.094;3.490;2023-11-21T13:27:46;5.27;;;2.47;;
56860;SDS011;42744;51.094;3.490;2023-11-21T13:30:13;2.37;;;1.23;;
56860;SDS011;42744;51.094;3.490;2023-11-21T13:32:48;2.93;;;1.10;;
56860;SDS011;42744;51.094;3.490;2023-11-21T13:35:17;2.90;;;0.90;;
56860;SDS011;42744;51.094;3.490;2023-11-21T13:37:47;2.90;;;1.10;;
56860;SDS011;42744;51.094;3.490;2023-11-21T13:40:20;3.77;;;1.10;;
56860;SDS011;42744;51.094;3.490;2023-11-21T13:42:51;2.37;;;1.20;;
56860;SDS011;42744;51.094;3.490;2023-11-21T13:45:22;2.40;;;0.90;;
56860;SDS011;42744;51.094;3.490;2023-11-21T13:47:49;2.90;;;0.97;;
56860;SDS011;42744;51.094;3.490;2023-11-21T13:50:39;4.57;;;1.07;;
56860;SDS011;42744;51.094;3.490;2023-11-21T13:53:13;4.13;;;1.10;;
56860;SDS011;42744;51.094;3.490;2023-11-21T13:55:49;2.60;;;0.90;;
56860;SDS011;42744;51.094;3.490;2023-11-21T13:58:16;3.87;;;1.07;;
56860;SDS011;42744;51.094;3.490;2023-11-21T14:00:48;6.23;;;1.37;;
56860;SDS011;42744;51.094;3.490;2023-11-21T14:03:24;4.83;;;1.10;;
56860;SDS011;42744;51.094;3.490;2023-11-21T14:06:03;4.83;;;1.00;;
56860;SDS011;42744;51.094;3.490;2023-11-21T14:08:40;3.63;;;1.30;;
56860;SDS011;42744;51.094;3.490;2023-11-21T14:11:07;4.10;;;1.30;;
56860;SDS011;42744;51.094;3.490;2023-11-21T14:13:33;5.03;;;1.43;;
56860;SDS011;42744;51.094;3.490;2023-11-21T14:15:59;5.70;;;1.33;;
56860;SDS011;42744;51.094;3.490;2023-11-21T14:18:27;4.97;;;1.33;;
56860;SDS011;42744;51.094;3.490;2023-11-21T14:21:04;2.40;;;1.10;;
56860;SDS011;42744;51.094;3.490;2023-11-21T14:23:35;4.40;;;1.67;;
56860;SDS011;42744;51.094;3.490;2023-11-21T14:26:04;3.77;;;1.43;;
56860;SDS011;42744;51.094;3.490;2023-11-21T14:28:31;3.17;;;1.10;;
56860;SDS011;42744;51.094;3.490;2023-11-21T14:30:58;5.17;;;1.07;;
56860;SDS011;42744;51.094;3.490;2023-11-21T14:33:25;2.83;;;1.40;;
56860;SDS011;42744;51.094;3.490;2023-11-21T14:35:50;5.07;;;1.73;;
56860;SDS011;42744;51.094;3.490;2023-11-21T14:38:17;3.50;;;1.50;;
56860;SDS011;42744;51.094;3.490;2023-11-21T14:40:43;3.63;;;1.20;;
56860;SDS011;42744;51.094;3.490;2023-11-21T14:43:09;3.40;;;1.30;;
56860;SDS011;42744;51.094;3.490;2023-11-21T14:45:35;2.97;;;1.40;;
56860;SDS011;42744;51.094;3.490;2023-11-21T14:48:02;4.07;;;1.40;;
56860;SDS011;42744;51.094;3.490;2023-11-21T14:50:31;2.83;;;1.33;;
56860;SDS011;42744;51.094;3.490;2023-11-21T14:53:04;2.00;;;1.07;;